Time;durP1;ratioP1;P1;durP2;ratioP2;P2;SDS_P1;SDS_P2;PMS_P1;PMS_P2;Temp;Humidity;BMP_temperature;BMP_pressure;BME280_temperature;BME280_humidity;BME280_pressure;Samples;Min_cycle;Max_cycle;Signal;HPM_P1;HPM_P2
2023/05/18 00:02:03;;;;;;;35.30;28.90;;;;;;;-128.00;-1.00;-1.00;105682;1251;1003620;-72
2023/05/18 00:04:32;;;;;;;33.00;28.10;;;;;;;-128.00;-1.00;-1.00;105692;1253;1003989;-71
2023/05/18 00:07:03;;;;;;;34.30;27.60;;;;;;;-128.00;-1.00;-1.00;105693;1251;1055943;-71
2023/05/18 00:09:32;;;;;;;34.90;25.50;;;;;;;-128.00;-1.00;-1.00;105760;1251;1058720;-70
2023/05/18 00:11:59;;;;;;;34.20;26.80;;;;;;;-128.00;-1.00;-1.00;105678;1251;1004426;-74
2023/05/18 00:14:26;;;;;;;34.20;26.40;;;;;;;-128.00;-1.00;-1.00;105710;1252;1004787;-71
2023/05/18 00:16:53;;;;;;;33.00;25.40;;;;;;;-128.00;-1.00;-1.00;105670;1251;1005435;-71
2023/05/18 00:19:22;;;;;;;34.30;25.00;;;;;;;-128.00;-1.00;-1.00;105699;1251;1004835;-71
2023/05/18 00:21:50;;;;;;;30.20;23.40;;;;;;;-128.00;-1.00;-1.00;105711;1251;1058213;-70
2023/05/18 00:24:18;;;;;;;32.80;24.90;;;;;;;-128.00;-1.00;-1.00;105687;1256;1003452;-71
2023/05/18 00:26:45;;;;;;;31.80;24.60;;;;;;;-128.00;-1.00;-1.00;105736;1251;1003650;-71
2023/05/18 00:29:12;;;;;;;38.50;24.50;;;;;;;-128.00;-1.00;-1.00;105749;1251;1003809;-71
2023/05/18 00:31:39;;;;;;;28.80;22.60;;;;;;;-128.00;-1.00;-1.00;105735;1251;1003802;-70
2023/05/18 00:34:07;;;;;;;28.60;22.80;;;;;;;-128.00;-1.00;-1.00;105648;1251;1004084;-70
2023/05/18 00:36:35;;;;;;;30.30;23.20;;;;;;;-128.00;-1.00;-1.00;105645;1251;1004313;-71
2023/05/18 00:39:03;;;;;;;29.00;22.60;;;;;;;-128.00;-1.00;-1.00;105732;1251;1005065;-72
2023/05/18 00:41:30;;;;;;;28.20;23.30;;;;;;;-128.00;-1.00;-1.00;105731;1251;1004002;-72
2023/05/18 00:43:57;;;;;;;32.50;23.90;;;;;;;-128.00;-1.00;-1.00;105738;1251;1003832;-70
2023/05/18 00:46:25;;;;;;;29.00;24.40;;;;;;;-128.00;-1.00;-1.00;105700;1251;1003818;-70
2023/05/18 00:48:54;;;;;;;30.10;24.30;;;;;;;-128.00;-1.00;-1.00;105670;1251;1004186;-70
2023/05/18 00:51:22;;;;;;;35.50;25.40;;;;;;;-128.00;-1.00;-1.00;105726;1251;1003902;-72
2023/05/18 00:53:51;;;;;;;31.50;25.30;;;;;;;-128.00;-1.00;-1.00;105715;1251;1003889;-70
2023/05/18 00:56:18;;;;;;;34.30;23.20;;;;;;;-128.00;-1.00;-1.00;105666;1251;1055286;-70
2023/05/18 00:58:46;;;;;;;35.90;26.20;;;;;;;-128.00;-1.00;-1.00;105581;1251;1004540;-71
2023/05/18 01:01:13;;;;;;;31.10;24.30;;;;;;;-128.00;-1.00;-1.00;105668;1251;1004176;-70
2023/05/18 01:03:40;;;;;;;32.20;24.90;;;;;;;-128.00;-1.00;-1.00;105708;1251;1005125;-71
2023/05/18 01:06:08;;;;;;;32.10;23.90;;;;;;;-128.00;-1.00;-1.00;105708;1251;1004384;-71
2023/05/18 01:08:36;;;;;;;35.50;25.60;;;;;;;-128.00;-1.00;-1.00;105717;1251;1004395;-70
2023/05/18 01:11:17;;;;;;;39.70;26.90;;;;;;;-128.00;-1.00;-1.00;105681;1251;1004103;-72
2023/05/18 01:14:03;;;;;;;33.80;24.90;;;;;;;-128.00;-1.00;-1.00;105643;1251;1045998;-70
2023/05/18 01:16:36;;;;;;;35.20;26.20;;;;;;;-128.00;-1.00;-1.00;105671;1251;1047047;-71
2023/05/18 01:19:19;;;;;;;35.50;24.30;;;;;;;-128.00;-1.00;-1.00;105684;1251;1061492;-71
2023/05/18 01:22:11;;;;;;;32.00;21.30;;;;;;;-128.00;-1.00;-1.00;105698;1251;1055359;-71
2023/05/18 01:24:44;;;;;;;30.00;21.50;;;;;;;-128.00;-1.00;-1.00;105685;1251;1059280;-71
2023/05/18 01:27:15;;;;;;;28.60;21.10;;;;;;;-128.00;-1.00;-1.00;105716;1251;1044978;-71
2023/05/18 01:29:43;;;;;;;33.00;22.10;;;;;;;-128.00;-1.00;-1.00;105725;1251;1047658;-70
2023/05/18 01:32:16;;;;;;;31.00;20.80;;;;;;;-128.00;-1.00;-1.00;105717;1251;1003856;-71
2023/05/18 01:34:43;;;;;;;27.80;20.30;;;;;;;-128.00;-1.00;-1.00;105691;1251;1056424;-70
2023/05/18 01:37:09;;;;;;;27.80;20.10;;;;;;;-128.00;-1.00;-1.00;105711;1251;1004157;-71
2023/05/18 01:39:36;;;;;;;30.20;20.00;;;;;;;-128.00;-1.00;-1.00;105625;1251;1004272;-70
2023/05/18 01:42:07;;;;;;;28.30;19.90;;;;;;;-128.00;-1.00;-1.00;105440;1251;1004882;-70
2023/05/18 01:44:57;;;;;;;24.70;20.20;;;;;;;-128.00;-1.00;-1.00;105576;1251;1060892;-70
2023/05/18 01:47:27;;;;;;;29.10;19.20;;;;;;;-128.00;-1.00;-1.00;105656;1251;1056635;-71
2023/05/18 01:50:02;;;;;;;28.30;17.50;;;;;;;-128.00;-1.00;-1.00;105681;1251;1060432;-70
2023/05/18 01:52:38;;;;;;;26.40;17.50;;;;;;;-128.00;-1.00;-1.00;105749;1251;1045015;-72
2023/05/18 01:55:06;;;;;;;26.40;16.80;;;;;;;-128.00;-1.00;-1.00;105692;1251;1047897;-72
2023/05/18 01:57:36;;;;;;;20.70;16.70;;;;;;;-128.00;-1.00;-1.00;105696;1251;1004367;-70
2023/05/18 02:00:31;;;;;;;26.80;17.30;;;;;;;-128.00;-1.00;-1.00;105677;1251;1056545;-73
2023/05/18 02:02:58;;;;;;;26.80;16.30;;;;;;;-128.00;-1.00;-1.00;105666;1251;1058532;-71
2023/05/18 02:05:24;;;;;;;24.70;16.70;;;;;;;-128.00;-1.00;-1.00;105692;1251;1004205;-71
2023/05/18 02:07:51;;;;;;;22.30;15.10;;;;;;;-128.00;-1.00;-1.00;105572;1251;1003746;-71
2023/05/18 02:10:17;;;;;;;20.00;14.20;;;;;;;-128.00;-1.00;-1.00;105769;1251;1003828;-72
2023/05/18 02:12:47;;;;;;;22.00;14.20;;;;;;;-128.00;-1.00;-1.00;105513;1259;1004004;-71
2023/05/18 02:15:14;;;;;;;28.90;15.00;;;;;;;-128.00;-1.00;-1.00;105672;1251;1058572;-71
2023/05/18 02:17:41;;;;;;;18.00;13.70;;;;;;;-128.00;-1.00;-1.00;105733;1251;1004645;-70
2023/05/18 02:20:08;;;;;;;22.40;13.50;;;;;;;-128.00;-1.00;-1.00;105660;1251;1003471;-70
2023/05/18 02:22:35;;;;;;;19.90;12.50;;;;;;;-128.00;-1.00;-1.00;105567;1251;1004805;-70
2023/05/18 02:25:03;;;;;;;23.90;13.40;;;;;;;-128.00;-1.00;-1.00;105669;1251;1004327;-69
2023/05/18 02:27:31;;;;;;;19.10;12.40;;;;;;;-128.00;-1.00;-1.00;105591;1251;1003334;-70
2023/05/18 02:29:58;;;;;;;20.00;12.70;;;;;;;-128.00;-1.00;-1.00;105706;1251;1003950;-70
2023/05/18 02:32:25;;;;;;;19.10;11.80;;;;;;;-128.00;-1.00;-1.00;105692;1251;1004250;-70
2023/05/18 02:34:52;;;;;;;20.40;12.80;;;;;;;-128.00;-1.00;-1.00;105731;1251;1005067;-70
2023/05/18 02:37:18;;;;;;;21.90;11.50;;;;;;;-128.00;-1.00;-1.00;105731;1251;1004743;-70
2023/05/18 02:39:45;;;;;;;23.90;12.00;;;;;;;-128.00;-1.00;-1.00;105547;1251;1003947;-70
2023/05/18 02:42:12;;;;;;;21.80;11.10;;;;;;;-128.00;-1.00;-1.00;105728;1251;1004196;-70
2023/05/18 02:44:40;;;;;;;17.40;10.30;;;;;;;-128.00;-1.00;-1.00;105705;1251;1004232;-70
2023/05/18 02:47:07;;;;;;;20.80;11.00;;;;;;;-128.00;-1.00;-1.00;105565;1251;1004280;-71
2023/05/18 02:49:33;;;;;;;19.30;10.60;;;;;;;-128.00;-1.00;-1.00;105678;1251;1003990;-70
2023/05/18 02:52:00;;;;;;;20.50;10.30;;;;;;;-128.00;-1.00;-1.00;105692;1251;1004346;-70
2023/05/18 02:54:26;;;;;;;18.00;11.30;;;;;;;-128.00;-1.00;-1.00;105672;1251;1004413;-70
2023/05/18 02:56:55;;;;;;;22.00;10.40;;;;;;;-128.00;-1.00;-1.00;105666;1251;1004236;-70
2023/05/18 02:59:22;;;;;;;21.40;9.40;;;;;;;-128.00;-1.00;-1.00;105719;1251;1061463;-70
2023/05/18 03:01:48;;;;;;;19.80;11.00;;;;;;;-128.00;-1.00;-1.00;105738;1251;1004949;-70
2023/05/18 03:04:15;;;;;;;19.70;11.00;;;;;;;-128.00;-1.00;-1.00;105749;1251;1004295;-70
2023/05/18 03:06:45;;;;;;;22.80;10.20;;;;;;;-128.00;-1.00;-1.00;105563;1251;1004709;-70
2023/05/18 03:09:11;;;;;;;18.60;10.00;;;;;;;-128.00;-1.00;-1.00;105742;1251;1046469;-70
2023/05/18 03:11:38;;;;;;;18.90;10.30;;;;;;;-128.00;-1.00;-1.00;105765;1251;1003828;-71
2023/05/18 03:14:04;;;;;;;20.40;9.40;;;;;;;-128.00;-1.00;-1.00;105692;1251;1003197;-70
2023/05/18 03:16:31;;;;;;;22.00;10.80;;;;;;;-128.00;-1.00;-1.00;105581;1251;1003955;-71
2023/05/18 03:19:00;;;;;;;18.50;9.50;;;;;;;-128.00;-1.00;-1.00;105743;1251;1003660;-70
2023/05/18 03:21:32;;;;;;;24.30;11.30;;;;;;;-128.00;-1.00;-1.00;105380;1251;1046085;-70
2023/05/18 03:23:59;;;;;;;18.90;9.70;;;;;;;-128.00;-1.00;-1.00;105717;1251;1062056;-70
2023/05/18 03:26:25;;;;;;;17.90;10.80;;;;;;;-128.00;-1.00;-1.00;105371;1251;1003659;-70
2023/05/18 03:28:52;;;;;;;21.20;10.50;;;;;;;-128.00;-1.00;-1.00;105518;1251;1004208;-71
2023/05/18 03:31:18;;;;;;;18.10;9.10;;;;;;;-128.00;-1.00;-1.00;105739;1251;1004025;-70
2023/05/18 03:33:45;;;;;;;19.80;9.10;;;;;;;-128.00;-1.00;-1.00;105612;1251;1004139;-70
2023/05/18 03:36:11;;;;;;;17.00;8.50;;;;;;;-128.00;-1.00;-1.00;105733;1251;1004036;-70
2023/05/18 03:38:38;;;;;;;18.50;8.70;;;;;;;-128.00;-1.00;-1.00;105557;1251;1004736;-70
2023/05/18 03:41:24;;;;;;;19.80;9.40;;;;;;;-128.00;-1.00;-1.00;105657;1251;1003699;-70
2023/05/18 03:43:51;;;;;;;16.30;8.90;;;;;;;-128.00;-1.00;-1.00;105466;1254;1046222;-70
2023/05/18 03:46:17;;;;;;;16.30;9.20;;;;;;;-128.00;-1.00;-1.00;105508;1254;1003736;-70
2023/05/18 03:48:44;;;;;;;17.30;9.00;;;;;;;-128.00;-1.00;-1.00;105274;1254;1003666;-70
2023/05/18 03:51:11;;;;;;;19.00;8.60;;;;;;;-128.00;-1.00;-1.00;105470;1254;1004176;-70
2023/05/18 03:53:37;;;;;;;18.70;8.90;;;;;;;-128.00;-1.00;-1.00;105496;1254;1004370;-70
2023/05/18 03:56:04;;;;;;;16.20;9.00;;;;;;;-128.00;-1.00;-1.00;105497;1254;1003527;-70
2023/05/18 03:58:30;;;;;;;21.10;9.10;;;;;;;-128.00;-1.00;-1.00;105538;1254;1003811;-70
2023/05/18 04:00:57;;;;;;;16.80;8.70;;;;;;;-128.00;-1.00;-1.00;105519;1254;1005990;-70
2023/05/18 04:03:25;;;;;;;15.90;9.00;;;;;;;-128.00;-1.00;-1.00;105515;1254;1004013;-70
2023/05/18 04:05:52;;;;;;;18.40;8.90;;;;;;;-128.00;-1.00;-1.00;105532;1254;1004670;-70
2023/05/18 04:08:19;;;;;;;15.80;9.60;;;;;;;-128.00;-1.00;-1.00;105492;1254;1003743;-71
2023/05/18 04:10:46;;;;;;;21.00;10.40;;;;;;;-128.00;-1.00;-1.00;105490;1254;1004936;-70
2023/05/18 04:13:12;;;;;;;22.90;10.40;;;;;;;-128.00;-1.00;-1.00;105540;1254;1003555;-70
2023/05/18 04:15:39;;;;;;;21.50;9.70;;;;;;;-128.00;-1.00;-1.00;105648;1251;1003883;-70
2023/05/18 04:18:06;;;;;;;18.10;8.90;;;;;;;-128.00;-1.00;-1.00;105607;1251;1004030;-70
2023/05/18 04:20:33;;;;;;;18.70;9.90;;;;;;;-128.00;-1.00;-1.00;105719;1251;1004508;-70
2023/05/18 04:22:59;;;;;;;19.70;10.80;;;;;;;-128.00;-1.00;-1.00;105701;1251;1004787;-70
2023/05/18 04:25:26;;;;;;;17.80;10.10;;;;;;;-128.00;-1.00;-1.00;105710;1251;1003759;-70
2023/05/18 04:27:54;;;;;;;18.30;10.00;;;;;;;-128.00;-1.00;-1.00;105724;1251;1004451;-70
2023/05/18 04:30:23;;;;;;;19.60;11.20;;;;;;;-128.00;-1.00;-1.00;105681;1251;1003518;-70
2023/05/18 04:32:49;;;;;;;18.90;10.20;;;;;;;-128.00;-1.00;-1.00;105720;1251;1045916;-70
2023/05/18 04:35:17;;;;;;;19.20;10.50;;;;;;;-128.00;-1.00;-1.00;105745;1251;1003950;-70
2023/05/18 04:37:44;;;;;;;19.00;10.70;;;;;;;-128.00;-1.00;-1.00;105730;1251;1004237;-71
2023/05/18 04:40:15;;;;;;;21.60;11.50;;;;;;;-128.00;-1.00;-1.00;105413;1257;1004168;-71
2023/05/18 04:42:46;;;;;;;19.70;11.00;;;;;;;-128.00;-1.00;-1.00;105727;1251;1060148;-71
2023/05/18 04:45:18;;;;;;;24.50;11.10;;;;;;;-128.00;-1.00;-1.00;105711;1251;1045812;-71
2023/05/18 04:47:46;;;;;;;23.70;10.80;;;;;;;-128.00;-1.00;-1.00;105729;1251;1046683;-71
2023/05/18 04:50:16;;;;;;;24.90;12.70;;;;;;;-128.00;-1.00;-1.00;105726;1251;1004303;-71
2023/05/18 04:52:47;;;;;;;17.80;10.90;;;;;;;-128.00;-1.00;-1.00;105654;1251;1055865;-70
2023/05/18 04:55:24;;;;;;;18.10;11.00;;;;;;;-128.00;-1.00;-1.00;105678;1251;1059050;-69
2023/05/18 04:57:55;;;;;;;16.30;10.80;;;;;;;-128.00;-1.00;-1.00;105671;1251;1045679;-71
2023/05/18 05:00:23;;;;;;;20.10;11.20;;;;;;;-128.00;-1.00;-1.00;105747;1251;1047346;-71
2023/05/18 05:02:50;;;;;;;17.70;11.10;;;;;;;-128.00;-1.00;-1.00;105674;1251;1061131;-70
2023/05/18 05:05:17;;;;;;;21.90;11.60;;;;;;;-128.00;-1.00;-1.00;105700;1251;1003935;-71
2023/05/18 05:07:44;;;;;;;21.20;11.80;;;;;;;-128.00;-1.00;-1.00;105398;1251;1003866;-71
2023/05/18 05:10:10;;;;;;;18.20;12.10;;;;;;;-128.00;-1.00;-1.00;105700;1251;1004583;-70
2023/05/18 05:12:37;;;;;;;18.80;12.00;;;;;;;-128.00;-1.00;-1.00;105742;1251;1004473;-70
2023/05/18 05:15:04;;;;;;;17.60;11.30;;;;;;;-128.00;-1.00;-1.00;105707;1251;1003922;-71
2023/05/18 05:17:31;;;;;;;20.40;12.20;;;;;;;-128.00;-1.00;-1.00;105350;1251;1004394;-71
2023/05/18 05:19:57;;;;;;;18.60;11.90;;;;;;;-128.00;-1.00;-1.00;105686;1253;1003398;-71
2023/05/18 05:22:24;;;;;;;20.90;12.60;;;;;;;-128.00;-1.00;-1.00;105720;1251;1003949;-70
2023/05/18 05:24:50;;;;;;;16.80;11.70;;;;;;;-128.00;-1.00;-1.00;105736;1251;1004874;-71
2023/05/18 05:27:17;;;;;;;25.80;13.60;;;;;;;-128.00;-1.00;-1.00;105714;1251;1003704;-71
2023/05/18 05:29:49;;;;;;;19.30;11.80;;;;;;;-128.00;-1.00;-1.00;105723;1251;1003817;-71
2023/05/18 05:32:15;;;;;;;18.60;12.20;;;;;;;-128.00;-1.00;-1.00;105670;1251;1060121;-71
2023/05/18 05:34:46;;;;;;;18.30;12.90;;;;;;;-128.00;-1.00;-1.00;105703;1251;1004614;-71
2023/05/18 05:37:13;;;;;;;23.70;13.50;;;;;;;-128.00;-1.00;-1.00;105447;1251;1047561;-71
2023/05/18 05:39:39;;;;;;;19.50;13.00;;;;;;;-128.00;-1.00;-1.00;105706;1251;1003894;-70
2023/05/18 05:42:07;;;;;;;21.70;12.50;;;;;;;-128.00;-1.00;-1.00;105751;1251;1004975;-70
2023/05/18 05:44:34;;;;;;;19.90;12.60;;;;;;;-128.00;-1.00;-1.00;105740;1251;1005672;-70
2023/05/18 05:47:00;;;;;;;20.20;13.20;;;;;;;-128.00;-1.00;-1.00;105384;1251;1004798;-71
2023/05/18 05:49:27;;;;;;;22.30;13.20;;;;;;;-128.00;-1.00;-1.00;105741;1251;1004115;-71
2023/05/18 05:51:53;;;;;;;23.00;13.70;;;;;;;-128.00;-1.00;-1.00;105723;1251;1004074;-71
2023/05/18 05:54:20;;;;;;;23.50;13.20;;;;;;;-128.00;-1.00;-1.00;105768;1251;1004406;-71
2023/05/18 05:56:46;;;;;;;20.60;11.90;;;;;;;-128.00;-1.00;-1.00;105708;1251;1004159;-71
2023/05/18 05:59:13;;;;;;;23.00;12.60;;;;;;;-128.00;-1.00;-1.00;105728;1251;1003231;-71
2023/05/18 06:01:40;;;;;;;19.10;11.70;;;;;;;-128.00;-1.00;-1.00;105759;1251;1004842;-71
2023/05/18 06:04:09;;;;;;;19.60;11.60;;;;;;;-128.00;-1.00;-1.00;105751;1251;1004053;-71
2023/05/18 06:06:37;;;;;;;20.70;11.90;;;;;;;-128.00;-1.00;-1.00;105760;1251;1055888;-71
2023/05/18 06:09:03;;;;;;;18.20;12.60;;;;;;;-128.00;-1.00;-1.00;105738;1251;1004559;-70
2023/05/18 06:11:30;;;;;;;19.80;12.50;;;;;;;-128.00;-1.00;-1.00;105738;1251;1004303;-71
2023/05/18 06:13:57;;;;;;;21.10;10.50;;;;;;;-128.00;-1.00;-1.00;105764;1251;1003752;-70
2023/05/18 06:16:24;;;;;;;17.00;10.40;;;;;;;-128.00;-1.00;-1.00;105736;1251;1004420;-71
2023/05/18 06:18:50;;;;;;;15.50;9.70;;;;;;;-128.00;-1.00;-1.00;105665;1251;1004546;-71
2023/05/18 06:21:17;;;;;;;16.70;9.70;;;;;;;-128.00;-1.00;-1.00;105733;1251;1004665;-70
2023/05/18 06:23:43;;;;;;;14.90;8.60;;;;;;;-128.00;-1.00;-1.00;105739;1251;1003984;-71
2023/05/18 06:26:10;;;;;;;14.80;6.90;;;;;;;-128.00;-1.00;-1.00;105596;1251;1004003;-71
2023/05/18 06:28:36;;;;;;;17.90;8.00;;;;;;;-128.00;-1.00;-1.00;105744;1251;1004304;-71
2023/05/18 06:31:03;;;;;;;12.80;7.20;;;;;;;-128.00;-1.00;-1.00;105747;1251;1004242;-71
2023/05/18 06:33:29;;;;;;;16.70;6.60;;;;;;;-128.00;-1.00;-1.00;105752;1251;1004359;-71
2023/05/18 06:35:56;;;;;;;14.60;8.10;;;;;;;-128.00;-1.00;-1.00;105680;1251;1004173;-71
2023/05/18 06:38:22;;;;;;;17.80;8.20;;;;;;;-128.00;-1.00;-1.00;105737;1252;1003821;-71
2023/05/18 06:40:49;;;;;;;15.60;7.60;;;;;;;-128.00;-1.00;-1.00;105436;1251;1003871;-71
2023/05/18 06:43:15;;;;;;;16.90;7.40;;;;;;;-128.00;-1.00;-1.00;105714;1251;1004775;-71
2023/05/18 06:45:42;;;;;;;14.10;7.70;;;;;;;-128.00;-1.00;-1.00;105748;1251;1005106;-71
2023/05/18 06:48:08;;;;;;;16.50;7.10;;;;;;;-128.00;-1.00;-1.00;105693;1251;1004431;-70
2023/05/18 06:50:35;;;;;;;18.90;8.00;;;;;;;-128.00;-1.00;-1.00;105661;1251;1004561;-70
2023/05/18 06:53:01;;;;;;;14.80;7.70;;;;;;;-128.00;-1.00;-1.00;105722;1251;1004238;-70
2023/05/18 06:55:28;;;;;;;19.30;7.50;;;;;;;-128.00;-1.00;-1.00;105729;1251;1003846;-71
2023/05/18 06:57:57;;;;;;;11.60;6.70;;;;;;;-128.00;-1.00;-1.00;105673;1251;1004000;-71
2023/05/18 07:00:23;;;;;;;13.70;7.70;;;;;;;-128.00;-1.00;-1.00;105658;1251;1045945;-71
2023/05/18 07:02:50;;;;;;;14.20;6.60;;;;;;;-128.00;-1.00;-1.00;105643;1251;1004122;-71
2023/05/18 07:05:17;;;;;;;13.50;7.10;;;;;;;-128.00;-1.00;-1.00;105760;1251;1004286;-71
2023/05/18 07:07:43;;;;;;;14.70;7.70;;;;;;;-128.00;-1.00;-1.00;105531;1251;1004585;-71
2023/05/18 07:10:10;;;;;;;12.90;6.90;;;;;;;-128.00;-1.00;-1.00;105691;1251;1004889;-71
2023/05/18 07:12:36;;;;;;;14.80;6.90;;;;;;;-128.00;-1.00;-1.00;105726;1251;1003744;-71
2023/05/18 07:15:04;;;;;;;13.20;7.70;;;;;;;-128.00;-1.00;-1.00;105729;1251;1004827;-71
2023/05/18 07:17:30;;;;;;;16.80;7.70;;;;;;;-128.00;-1.00;-1.00;105552;1251;1004507;-71
2023/05/18 07:19:57;;;;;;;13.50;7.70;;;;;;;-128.00;-1.00;-1.00;105546;1251;1004838;-71
2023/05/18 07:22:23;;;;;;;12.70;6.20;;;;;;;-128.00;-1.00;-1.00;105752;1251;1004301;-71
2023/05/18 07:24:50;;;;;;;12.50;6.70;;;;;;;-128.00;-1.00;-1.00;105552;1251;1004322;-71
2023/05/18 07:27:16;;;;;;;13.20;7.20;;;;;;;-128.00;-1.00;-1.00;105722;1251;1004028;-72
2023/05/18 07:29:43;;;;;;;14.00;7.20;;;;;;;-128.00;-1.00;-1.00;105740;1251;1004736;-72
2023/05/18 07:32:09;;;;;;;11.10;6.80;;;;;;;-128.00;-1.00;-1.00;105727;1251;1003517;-71
2023/05/18 07:34:36;;;;;;;13.10;6.60;;;;;;;-128.00;-1.00;-1.00;105703;1251;1004121;-70
2023/05/18 07:37:02;;;;;;;9.60;6.90;;;;;;;-128.00;-1.00;-1.00;105689;1251;1004229;-71
2023/05/18 07:39:29;;;;;;;8.50;6.90;;;;;;;-128.00;-1.00;-1.00;105537;1251;1004676;-71
2023/05/18 07:41:56;;;;;;;10.70;6.00;;;;;;;-128.00;-1.00;-1.00;105705;1251;1004419;-70
2023/05/18 07:44:23;;;;;;;7.50;5.10;;;;;;;-128.00;-1.00;-1.00;105750;1251;1004591;-71
2023/05/18 07:46:49;;;;;;;7.70;5.60;;;;;;;-128.00;-1.00;-1.00;105694;1251;1003761;-70
2023/05/18 07:49:16;;;;;;;9.90;6.90;;;;;;;-128.00;-1.00;-1.00;105399;1251;1003179;-71
2023/05/18 07:51:42;;;;;;;11.50;6.60;;;;;;;-128.00;-1.00;-1.00;105721;1251;1005111;-70
2023/05/18 07:54:09;;;;;;;11.80;7.90;;;;;;;-128.00;-1.00;-1.00;105540;1251;1004375;-71
2023/05/18 07:56:36;;;;;;;10.60;7.40;;;;;;;-128.00;-1.00;-1.00;105720;1251;1004638;-71
2023/05/18 07:59:02;;;;;;;10.30;6.90;;;;;;;-128.00;-1.00;-1.00;105720;1251;1004119;-70
2023/05/18 08:01:30;;;;;;;11.50;7.90;;;;;;;-128.00;-1.00;-1.00;105698;1251;1004322;-70
2023/05/18 08:03:57;;;;;;;12.20;6.70;;;;;;;-128.00;-1.00;-1.00;105751;1251;1004731;-70
2023/05/18 08:06:23;;;;;;;13.70;7.30;;;;;;;-128.00;-1.00;-1.00;105727;1251;1003669;-70
2023/05/18 08:08:50;;;;;;;10.00;7.20;;;;;;;-128.00;-1.00;-1.00;105702;1251;1004881;-71
2023/05/18 08:11:17;;;;;;;7.70;6.70;;;;;;;-128.00;-1.00;-1.00;105704;1251;1003975;-71
2023/05/18 08:13:43;;;;;;;11.70;8.30;;;;;;;-128.00;-1.00;-1.00;105740;1251;1004685;-72
2023/05/18 08:16:10;;;;;;;11.80;9.10;;;;;;;-128.00;-1.00;-1.00;105748;1251;1004528;-71
2023/05/18 08:18:37;;;;;;;13.00;10.10;;;;;;;-128.00;-1.00;-1.00;105684;1251;1004763;-71
2023/05/18 08:21:06;;;;;;;12.90;9.00;;;;;;;-128.00;-1.00;-1.00;105453;1251;1004097;-71
2023/05/18 08:23:33;;;;;;;13.30;7.90;;;;;;;-128.00;-1.00;-1.00;105731;1251;1059511;-71
2023/05/18 08:26:02;;;;;;;11.20;6.30;;;;;;;-128.00;-1.00;-1.00;105714;1251;1004073;-72
2023/05/18 08:28:29;;;;;;;10.50;5.70;;;;;;;-128.00;-1.00;-1.00;105736;1251;1045962;-71
2023/05/18 08:30:57;;;;;;;12.20;4.60;;;;;;;-128.00;-1.00;-1.00;105773;1251;1004633;-70
2023/05/18 08:33:23;;;;;;;8.00;4.20;;;;;;;-128.00;-1.00;-1.00;105734;1251;1004156;-71
2023/05/18 08:35:50;;;;;;;8.60;4.20;;;;;;;-128.00;-1.00;-1.00;105701;1251;1005521;-71
2023/05/18 08:38:16;;;;;;;8.00;4.30;;;;;;;-128.00;-1.00;-1.00;105708;1251;1004961;-70
2023/05/18 08:40:54;;;;;;;9.70;4.30;;;;;;;-128.00;-1.00;-1.00;105785;1250;1004495;-70
2023/05/18 08:43:24;;;;;;;11.20;4.70;;;;;;;-128.00;-1.00;-1.00;105634;1251;1061693;-71
2023/05/18 08:45:57;;;;;;;9.70;3.60;;;;;;;-128.00;-1.00;-1.00;105706;1253;1055526;-70
2023/05/18 08:48:26;;;;;;;6.60;3.20;;;;;;;-128.00;-1.00;-1.00;105732;1251;1058994;-71
2023/05/18 08:50:55;;;;;;;7.30;3.80;;;;;;;-128.00;-1.00;-1.00;105708;1251;1045580;-71
2023/05/18 08:53:23;;;;;;;12.80;9.80;;;;;;;-128.00;-1.00;-1.00;105675;1251;1047702;-71
2023/05/18 08:55:53;;;;;;;6.70;4.50;;;;;;;-128.00;-1.00;-1.00;105693;1251;1004095;-71
2023/05/18 08:58:36;;;;;;;14.50;9.20;;;;;;;-128.00;-1.00;-1.00;105677;1251;1056078;-71
2023/05/18 09:01:03;;;;;;;7.40;5.30;;;;;;;-128.00;-1.00;-1.00;105781;1251;1059089;-71
2023/05/18 09:03:31;;;;;;;6.50;4.60;;;;;;;-128.00;-1.00;-1.00;105747;1251;1004884;-70
2023/05/18 09:05:59;;;;;;;7.20;3.90;;;;;;;-128.00;-1.00;-1.00;105698;1251;1005016;-71
2023/05/18 09:08:27;;;;;;;6.60;5.90;;;;;;;-128.00;-1.00;-1.00;105722;1251;1061625;-71
2023/05/18 09:10:56;;;;;;;6.50;4.50;;;;;;;-128.00;-1.00;-1.00;105739;1251;1003841;-72
2023/05/18 09:13:23;;;;;;;6.20;4.40;;;;;;;-128.00;-1.00;-1.00;105671;1251;1059558;-71
2023/05/18 09:15:50;;;;;;;5.80;3.60;;;;;;;-128.00;-1.00;-1.00;105746;1251;1003514;-71
2023/05/18 09:18:16;;;;;;;9.40;3.90;;;;;;;-128.00;-1.00;-1.00;105756;1251;1005346;-71
2023/05/18 09:20:44;;;;;;;6.20;3.80;;;;;;;-128.00;-1.00;-1.00;105802;1251;1003892;-71
2023/05/18 09:23:11;;;;;;;5.30;2.80;;;;;;;-128.00;-1.00;-1.00;105731;1253;1004310;-71
2023/05/18 09:25:45;;;;;;;7.50;3.80;;;;;;;-128.00;-1.00;-1.00;105671;1251;1004640;-70
2023/05/18 09:28:13;;;;;;;7.70;4.60;;;;;;;-128.00;-1.00;-1.00;105750;1251;1047469;-71
2023/05/18 09:30:43;;;;;;;7.60;3.10;;;;;;;-128.00;-1.00;-1.00;105757;1251;1003994;-71
2023/05/18 09:33:16;;;;;;;6.80;3.20;;;;;;;-128.00;-1.00;-1.00;105688;1251;1061596;-70
2023/05/18 09:35:46;;;;;;;7.90;2.50;;;;;;;-128.00;-1.00;-1.00;105671;1251;1055502;-70
2023/05/18 09:38:20;;;;;;;;;;;;;;;-128.00;-1.00;-1.00;105739;1251;1059794;-71
2023/05/18 09:40:48;;;;;;;31.80;23.80;;;;;;;-128.00;-1.00;-1.00;105421;1255;1046259;-71
2023/05/18 09:43:16;;;;;;;27.10;20.30;;;;;;;-128.00;-1.00;-1.00;105319;1256;1004116;-72
2023/05/18 09:45:48;;;;;;;4.50;2.90;;;;;;;-128.00;-1.00;-1.00;105438;1255;1062301;-71
2023/05/18 09:48:15;;;;;;;6.30;3.00;;;;;;;-128.00;-1.00;-1.00;105354;1256;1055385;-71
2023/05/18 09:50:43;;;;;;;5.40;2.90;;;;;;;-128.00;-1.00;-1.00;105371;1255;1005096;-71
2023/05/18 09:53:12;;;;;;;11.40;10.40;;;;;;;-128.00;-1.00;-1.00;105449;1255;1004460;-71
2023/05/18 09:55:47;;;;;;;12.90;8.60;;;;;;;-128.00;-1.00;-1.00;105463;1255;1046658;-71
2023/05/18 09:58:14;;;;;;;10.30;5.40;;;;;;;-128.00;-1.00;-1.00;105404;1255;1061544;-72
2023/05/18 10:00:50;;;;;;;6.10;3.00;;;;;;;-128.00;-1.00;-1.00;105455;1255;1004519;-72
2023/05/18 10:03:21;;;;;;;17.00;11.40;;;;;;;-128.00;-1.00;-1.00;105401;1255;1059308;-71
2023/05/18 10:05:49;;;;;;;9.10;5.60;;;;;;;-128.00;-1.00;-1.00;105419;1255;1046709;-72
2023/05/18 10:08:16;;;;;;;9.80;4.70;;;;;;;-128.00;-1.00;-1.00;105397;1256;1003307;-71
2023/05/18 10:10:45;;;;;;;7.70;4.50;;;;;;;-128.00;-1.00;-1.00;105434;1255;1004272;-70
2023/05/18 10:13:18;;;;;;;5.10;3.40;;;;;;;-128.00;-1.00;-1.00;105689;1251;1055967;-70
2023/05/18 10:15:47;;;;;;;6.80;4.00;;;;;;;-128.00;-1.00;-1.00;105769;1251;1059044;-70
2023/05/18 10:18:19;;;;;;;4.40;2.90;;;;;;;-128.00;-1.00;-1.00;105705;1251;1045426;-71
2023/05/18 10:20:47;;;;;;;6.70;4.20;;;;;;;-128.00;-1.00;-1.00;105723;1251;1046018;-71
2023/05/18 10:23:14;;;;;;;7.80;4.00;;;;;;;-128.00;-1.00;-1.00;105766;1251;1003662;-71
2023/05/18 10:25:44;;;;;;;10.10;3.70;;;;;;;-128.00;-1.00;-1.00;105680;1251;1004120;-71
2023/05/18 10:28:16;;;;;;;6.70;4.80;;;;;;;-128.00;-1.00;-1.00;105718;1251;1058777;-72
2023/05/18 10:30:43;;;;;;;6.50;4.00;;;;;;;-128.00;-1.00;-1.00;105722;1251;1046791;-71
2023/05/18 10:33:10;;;;;;;12.70;5.70;;;;;;;-128.00;-1.00;-1.00;105741;1251;1004016;-71
2023/05/18 10:35:38;;;;;;;29.80;7.90;;;;;;;-128.00;-1.00;-1.00;105703;1251;1004398;-71
2023/05/18 10:38:06;;;;;;;12.70;6.80;;;;;;;-128.00;-1.00;-1.00;105664;1251;1004939;-71
2023/05/18 10:40:34;;;;;;;16.50;7.70;;;;;;;-128.00;-1.00;-1.00;105692;1251;1005097;-71
2023/05/18 10:43:03;;;;;;;8.30;4.30;;;;;;;-128.00;-1.00;-1.00;105731;1251;1045937;-71
2023/05/18 10:45:32;;;;;;;11.00;8.20;;;;;;;-128.00;-1.00;-1.00;105758;1251;1003868;-71
2023/05/18 10:48:01;;;;;;;10.20;7.00;;;;;;;-128.00;-1.00;-1.00;105746;1251;1061998;-71
2023/05/18 10:50:30;;;;;;;8.50;7.60;;;;;;;-128.00;-1.00;-1.00;105771;1251;1003828;-72
2023/05/18 10:52:59;;;;;;;7.20;5.70;;;;;;;-128.00;-1.00;-1.00;105715;1251;1059073;-73
2023/05/18 10:55:27;;;;;;;9.30;6.40;;;;;;;-128.00;-1.00;-1.00;105756;1251;1046393;-72
2023/05/18 10:58:02;;;;;;;8.10;4.00;;;;;;;-128.00;-1.00;-1.00;105774;1251;1047825;-73
2023/05/18 11:01:09;;;;;;;9.10;6.90;;;;;;;-128.00;-1.00;-1.00;105763;1251;1061858;-73
2023/05/18 11:03:38;;;;;;;7.10;3.70;;;;;;;-128.00;-1.00;-1.00;105534;1257;1054730;-72
2023/05/18 11:06:09;;;;;;;8.50;4.40;;;;;;;-128.00;-1.00;-1.00;105306;1256;1059721;-73
2023/05/18 11:09:02;;;;;;;7.90;4.40;;;;;;;-128.00;-1.00;-1.00;105355;1256;1046279;-73
2023/05/18 11:11:50;;;;;;;8.30;4.80;;;;;;;-128.00;-1.00;-1.00;105050;1262;1047322;-72
2023/05/18 11:14:25;;;;;;;8.30;5.00;;;;;;;-128.00;-1.00;-1.00;105019;1262;1060844;-73